createdAt,value
2023-03-06T00:01:03.651Z,11.20
2023-03-06T00:03:56.236Z,9.30
2023-03-06T00:09:39.616Z,10.20
2023-03-06T00:12:24.573Z,20.40
2023-03-06T00:18:04.166Z,15.70
2023-03-06T00:20:56.434Z,18.00
2023-03-06T00:23:42.177Z,27.10
2023-03-06T00:26:17.369Z,43.30
2023-03-06T00:29:00.832Z,40.90
2023-03-06T00:34:37.932Z,13.00
2023-03-06T00:37:15.115Z,17.60
2023-03-06T00:40:11.294Z,18.40
2023-03-06T00:43:03.603Z,11.20
2023-03-06T00:45:50.100Z,11.80
2023-03-06T00:48:42.257Z,9.40
2023-03-06T00:51:34.587Z,11.60
2023-03-06T00:54:19.481Z,43.40
2023-03-06T00:57:03.285Z,124.60
2023-03-06T01:02:37.044Z,21.50
2023-03-06T01:08:20.192Z,34.80
2023-03-06T01:11:12.578Z,33.70
2023-03-06T01:16:36.014Z,28.60
2023-03-06T01:19:28.365Z,30.60
2023-03-06T01:22:05.412Z,26.50
2023-03-06T01:24:57.647Z,31.10
2023-03-06T01:27:50.013Z,31.80
2023-03-06T01:30:35.917Z,57.60
2023-03-06T01:33:28.220Z,75.70
2023-03-06T01:39:05.107Z,46.00
2023-03-06T01:41:57.355Z,12.40
2023-03-06T01:45:04.322Z,23.00
2023-03-06T01:47:50.029Z,19.00
2023-03-06T01:50:42.651Z,10.00
2023-03-06T01:53:35.208Z,19.20
2023-03-06T01:56:28.011Z,12.60
2023-03-06T01:59:04.416Z,22.50
2023-03-06T02:01:42.707Z,16.60
2023-03-06T02:04:36.245Z,16.10
2023-03-06T02:07:23.842Z,17.20
2023-03-06T02:10:11.271Z,19.20
2023-03-06T02:13:03.867Z,24.40
2023-03-06T02:15:50.161Z,34.70
2023-03-06T02:18:31.492Z,38.60
2023-03-06T02:21:27.149Z,8.70
2023-03-06T02:24:15.778Z,6.50
2023-03-06T02:27:04.459Z,5.80
2023-03-06T02:29:41.516Z,6.60
2023-03-06T02:32:34.088Z,10.60
2023-03-06T02:38:17.201Z,7.10
2023-03-06T02:41:10.777Z,9.50
2023-03-06T02:44:03.242Z,7.40
2023-03-06T02:46:55.478Z,11.20
2023-03-06T02:49:47.814Z,13.60
2023-03-06T02:52:33.718Z,16.70
2023-03-06T02:55:22.570Z,10.10
2023-03-06T02:58:08.254Z,9.90
2023-03-06T03:00:45.536Z,10.20
2023-03-06T03:03:36.713Z,10.10
2023-03-06T03:06:29.073Z,23.70
2023-03-06T03:09:21.612Z,11.50
2023-03-06T03:12:14.471Z,18.40
2023-03-06T03:14:56.944Z,14.60
2023-03-06T03:17:29.674Z,13.60
2023-03-06T03:20:17.744Z,15.10
2023-03-06T03:23:10.052Z,13.60
2023-03-06T03:26:10.927Z,12.10
2023-03-06T03:29:04.747Z,14.80
2023-03-06T03:31:51.528Z,12.50
2023-03-06T03:37:34.778Z,6.50
2023-03-06T03:43:17.655Z,8.10
2023-03-06T03:46:03.763Z,8.20
2023-03-06T03:48:47.085Z,8.40
2023-03-06T03:51:39.509Z,11.10
2023-03-06T03:57:22.205Z,11.20
2023-03-06T04:00:17.177Z,18.80
2023-03-06T04:03:05.817Z,20.70
2023-03-06T04:05:58.313Z,24.40
2023-03-06T04:11:40.172Z,29.80
2023-03-06T04:14:25.167Z,29.70
2023-03-06T04:17:17.415Z,25.90
2023-03-06T04:19:54.912Z,29.00
2023-03-06T04:22:41.261Z,36.20
2023-03-06T04:25:33.200Z,37.20
2023-03-06T04:28:09.734Z,29.30
2023-03-06T04:31:02.183Z,14.40
2023-03-06T04:33:53.230Z,15.10
2023-03-06T04:36:36.775Z,34.40
2023-03-06T04:39:27.887Z,27.90
2023-03-06T04:42:04.828Z,24.20
2023-03-06T04:44:57.286Z,11.90
2023-03-06T04:47:40.795Z,18.10
2023-03-06T04:50:32.753Z,61.70
2023-03-06T04:53:21.400Z,28.50
2023-03-06T04:55:56.223Z,28.20
2023-03-06T04:58:42.549Z,50.00
2023-03-06T05:01:34.741Z,69.80
2023-03-06T05:04:18.024Z,50.20
2023-03-06T05:07:10.909Z,27.50
2023-03-06T05:10:03.260Z,21.10
2023-03-06T05:12:55.728Z,99.60
2023-03-06T05:18:39.135Z,153.00
2023-03-06T05:24:22.236Z,67.80
2023-03-06T05:30:12.584Z,62.90
2023-03-06T05:33:04.889Z,75.80
2023-03-06T05:35:50.944Z,63.40
2023-03-06T05:38:34.638Z,58.70
2023-03-06T05:41:27.007Z,48.00
2023-03-06T05:44:19.244Z,64.80
2023-03-06T05:47:12.138Z,57.20
2023-03-06T05:52:40.808Z,48.30
2023-03-06T05:55:32.228Z,51.80
2023-03-06T05:58:29.266Z,32.50
2023-03-06T06:01:15.513Z,32.00
2023-03-06T06:03:52.824Z,30.70
2023-03-06T06:06:29.714Z,31.70
2023-03-06T06:09:22.434Z,36.80
2023-03-06T06:12:15.601Z,40.00
2023-03-06T06:14:51.387Z,53.60
2023-03-06T06:17:26.821Z,78.40
2023-03-06T06:20:12.569Z,83.20
2023-03-06T06:22:47.956Z,59.50
2023-03-06T06:25:40.415Z,43.70
2023-03-06T06:28:25.277Z,30.30
2023-03-06T06:31:14.744Z,35.50
2023-03-06T06:34:08.481Z,32.50
2023-03-06T06:37:00.880Z,32.90
2023-03-06T06:39:53.429Z,30.90
2023-03-06T06:42:47.271Z,35.70
2023-03-06T06:45:39.782Z,89.30
2023-03-06T06:48:19.440Z,201.00
2023-03-06T06:51:12.112Z,226.90
2023-03-06T06:54:04.782Z,110.40
2023-03-06T06:56:57.199Z,135.00
2023-03-06T07:02:40.436Z,97.70
2023-03-06T07:05:32.959Z,73.40
2023-03-06T07:08:17.667Z,58.40
2023-03-06T07:11:12.487Z,44.40
2023-03-06T07:13:57.103Z,43.10
2023-03-06T07:16:49.544Z,37.60
2023-03-06T07:19:41.839Z,34.30
2023-03-06T07:22:25.488Z,48.10
2023-03-06T07:25:17.995Z,46.10
2023-03-06T07:31:01.229Z,32.10
2023-03-06T07:33:53.362Z,27.70
2023-03-06T07:36:40.519Z,24.70
2023-03-06T07:39:32.911Z,22.20
2023-03-06T07:42:11.387Z,21.30
2023-03-06T07:44:50.920Z,26.00
2023-03-06T07:47:36.162Z,22.50
2023-03-06T07:50:28.738Z,21.70
2023-03-06T07:53:12.106Z,21.10
2023-03-06T07:55:57.764Z,27.40
2023-03-06T07:58:49.170Z,28.00
2023-03-06T08:01:42.034Z,33.90
2023-03-06T08:04:19.865Z,38.30
2023-03-06T08:10:03.279Z,30.00
2023-03-06T08:12:37.765Z,27.60
2023-03-06T08:15:22.510Z,26.60
2023-03-06T08:18:14.906Z,27.30
2023-03-06T08:20:52.265Z,25.80
2023-03-06T08:23:45.102Z,25.50
2023-03-06T08:26:21.431Z,24.70
2023-03-06T08:29:04.257Z,20.80
2023-03-06T08:31:56.739Z,21.90
2023-03-06T08:37:38.375Z,28.50
2023-03-06T08:40:31.179Z,23.00
2023-03-06T08:43:23.524Z,27.90
2023-03-06T08:46:16.006Z,28.30
2023-03-06T08:48:59.611Z,32.10
2023-03-06T08:51:53.074Z,24.80
2023-03-06T08:54:37.524Z,24.80
2023-03-06T08:57:20.771Z,20.10
2023-03-06T09:00:15.544Z,18.10
2023-03-06T09:03:08.139Z,16.40
2023-03-06T09:06:03.661Z,14.70
2023-03-06T09:08:55.420Z,15.80
2023-03-06T09:11:48.352Z,32.20
2023-03-06T09:14:23.673Z,11.90
2023-03-06T09:17:14.900Z,12.20
2023-03-06T09:20:10.604Z,13.10
2023-03-06T09:22:46.033Z,11.90
2023-03-06T09:25:38.652Z,11.70
2023-03-06T09:28:22.163Z,10.80
2023-03-06T09:30:59.466Z,22.30
2023-03-06T09:33:52.165Z,14.50
2023-03-06T09:36:49.311Z,11.30
2023-03-06T09:39:31.397Z,13.00
2023-03-06T09:42:03.696Z,14.30
2023-03-06T09:44:52.762Z,11.60
2023-03-06T09:47:50.438Z,7.90
2023-03-06T09:50:42.848Z,20.40
2023-03-06T09:53:50.827Z,26.10
2023-03-06T09:56:31.147Z,8.60
2023-03-06T10:04:41.626Z,19.00
2023-03-06T10:07:24.401Z,12.70
2023-03-06T10:10:01.010Z,7.80
2023-03-06T10:12:38.806Z,10.20
2023-03-06T10:15:36.180Z,5.70
2023-03-06T10:18:08.946Z,9.60
2023-03-06T10:20:54.674Z,17.60
2023-03-06T10:23:55.700Z,7.00
2023-03-06T10:26:44.663Z,9.80
2023-03-06T10:30:01.655Z,7.60
2023-03-06T10:32:50.337Z,9.20
2023-03-06T10:35:31.092Z,19.40
2023-03-06T10:38:19.517Z,27.20
2023-03-06T10:41:25.475Z,18.10
2023-03-06T10:44:26.835Z,15.10
2023-03-06T10:47:35.372Z,8.10
2023-03-06T10:50:28.990Z,6.30
2023-03-06T10:53:23.639Z,8.00
2023-03-06T10:56:07.353Z,6.60
2023-03-06T10:59:13.622Z,6.20
2023-03-06T11:01:52.748Z,5.10
2023-03-06T11:04:30.745Z,4.70
2023-03-06T11:07:19.405Z,6.40
2023-03-06T11:10:19.146Z,10.30
2023-03-06T11:13:06.289Z,14.40
2023-03-06T11:15:38.903Z,21.10
2023-03-06T11:18:36.005Z,15.40
2023-03-06T11:21:32.435Z,20.60
2023-03-06T11:24:16.745Z,17.90
2023-03-06T11:26:55.574Z,18.60
2023-03-06T11:29:44.762Z,16.30
2023-03-06T11:32:46.863Z,23.50
2023-03-06T11:35:24.839Z,27.90
2023-03-06T11:38:17.187Z,14.90
2023-03-06T11:41:04.495Z,18.00
2023-03-06T11:43:47.870Z,36.00
2023-03-06T11:46:45.271Z,12.60
2023-03-06T11:49:33.345Z,24.80
2023-03-06T11:52:28.663Z,37.00
2023-03-06T11:55:35.656Z,32.80
2023-03-06T11:58:54.816Z,27.40
2023-03-06T12:02:06.740Z,62.10
2023-03-06T12:05:10.277Z,65.90
2023-03-06T12:08:16.262Z,24.40
2023-03-06T12:14:15.659Z,225.00
2023-03-06T12:17:23.798Z,172.70
2023-03-06T12:20:41.528Z,394.50
2023-03-06T12:23:29.942Z,120.40
2023-03-06T12:26:38.210Z,39.40
2023-03-06T12:29:36.133Z,68.20
2023-03-06T12:32:30.185Z,17.20
2023-03-06T12:35:51.607Z,19.30
2023-03-06T12:39:04.572Z,23.40
2023-03-06T12:45:05.989Z,16.80
2023-03-06T12:47:51.347Z,33.40
2023-03-06T12:50:38.383Z,29.30
2023-03-06T12:53:28.044Z,31.60
2023-03-06T12:56:04.972Z,18.90
2023-03-06T12:58:57.570Z,18.80
2023-03-06T13:02:02.717Z,21.00
2023-03-06T13:08:01.354Z,9.00
2023-03-06T13:11:18.733Z,6.40
2023-03-06T13:13:51.242Z,9.60
2023-03-06T13:16:42.558Z,49.10
2023-03-06T13:19:27.531Z,37.10
2023-03-06T13:22:30.336Z,18.90
2023-03-06T13:25:48.022Z,15.60
2023-03-06T13:28:46.571Z,9.70
2023-03-06T13:32:15.986Z,8.10
2023-03-06T13:35:48.513Z,6.00
2023-03-06T13:39:00.263Z,5.00
2023-03-06T13:42:00.655Z,11.20
2023-03-06T13:44:54.520Z,6.20
2023-03-06T13:48:21.165Z,6.70
2023-03-06T13:51:25.140Z,7.10
2023-03-06T13:54:32.572Z,29.30
2023-03-06T13:57:32.300Z,10.70
2023-03-06T14:00:36.711Z,18.90
2023-03-06T14:04:07.683Z,14.60
2023-03-06T14:07:06.516Z,7.00
2023-03-06T14:09:53.851Z,14.70
2023-03-06T14:12:34.121Z,6.10
2023-03-06T14:15:31.661Z,8.30
2023-03-06T14:18:38.231Z,5.00
2023-03-06T14:21:31.243Z,8.60
2023-03-06T14:24:19.891Z,19.20
2023-03-06T14:27:02.160Z,5.80
2023-03-06T14:32:38.971Z,7.20
2023-03-06T14:35:29.302Z,5.60
2023-03-06T14:38:16.284Z,35.90
2023-03-06T14:41:00.848Z,31.50
2023-03-06T14:43:53.425Z,31.10
2023-03-06T14:46:38.778Z,12.10
2023-03-06T14:49:29.797Z,7.00
2023-03-06T14:52:21.873Z,7.80
2023-03-06T14:55:18.134Z,14.40
2023-03-06T14:57:57.272Z,9.50
2023-03-06T15:00:45.397Z,7.80
2023-03-06T15:03:46.878Z,6.70
2023-03-06T15:06:25.499Z,11.50
2023-03-06T15:09:20.512Z,41.30
2023-03-06T15:12:01.856Z,72.60
2023-03-06T15:15:00.456Z,180.00
2023-03-06T15:17:44.860Z,188.50
2023-03-06T15:20:44.667Z,208.40
2023-03-06T15:23:43.323Z,184.20
2023-03-06T15:26:37.933Z,244.00
2023-03-06T15:29:24.342Z,317.50
2023-03-06T15:32:30.628Z,332.00
2023-03-06T15:35:33.894Z,274.50
2023-03-06T15:39:01.709Z,317.20
2023-03-06T15:41:41.881Z,328.60
2023-03-06T15:44:35.105Z,321.80
2023-03-06T15:47:20.401Z,231.60
2023-03-06T15:50:20.485Z,134.80
2023-03-06T15:53:13.163Z,76.10
2023-03-06T15:56:05.390Z,38.90
2023-03-06T15:58:43.351Z,24.20
2023-03-06T16:01:21.648Z,30.90
2023-03-06T16:04:17.093Z,29.50
2023-03-06T16:07:09.676Z,25.10
2023-03-06T16:09:53.570Z,19.80
2023-03-06T16:12:36.855Z,21.40
2023-03-06T16:15:25.385Z,18.40
2023-03-06T16:18:18.628Z,27.00
2023-03-06T16:21:11.042Z,10.10
2023-03-06T16:23:48.196Z,17.20
2023-03-06T16:26:41.887Z,16.10
2023-03-06T16:29:34.294Z,11.30
2023-03-06T16:32:28.758Z,17.10
2023-03-06T16:35:04.249Z,17.90
2023-03-06T16:38:00.006Z,14.90
2023-03-06T16:40:43.355Z,13.20
2023-03-06T16:43:36.060Z,13.80
2023-03-06T16:46:20.369Z,18.60
2023-03-06T16:49:12.684Z,16.50
2023-03-06T16:52:06.601Z,13.00
2023-03-06T16:54:59.855Z,12.80
2023-03-06T16:57:43.550Z,14.10
2023-03-06T17:00:31.166Z,12.50
2023-03-06T17:03:12.519Z,10.80
2023-03-06T17:06:05.573Z,12.00
2023-03-06T17:08:49.115Z,10.70
2023-03-06T17:11:34.160Z,13.70
2023-03-06T17:17:02.054Z,10.60
2023-03-06T17:19:54.697Z,9.60
2023-03-06T17:22:47.158Z,8.60
2023-03-06T17:25:39.715Z,12.00
2023-03-06T17:28:32.115Z,10.80
2023-03-06T17:31:25.516Z,13.40
2023-03-06T17:34:03.445Z,10.20
2023-03-06T17:39:47.326Z,13.80
2023-03-06T17:42:33.288Z,18.40
2023-03-06T17:45:18.574Z,15.80
2023-03-06T17:47:57.172Z,16.50
2023-03-06T17:50:29.277Z,15.80
2023-03-06T17:53:11.382Z,43.80
2023-03-06T17:55:54.842Z,45.70
2023-03-06T17:58:30.215Z,71.20
2023-03-06T18:01:19.092Z,66.60
2023-03-06T18:04:04.554Z,43.10
2023-03-06T18:06:58.397Z,37.20
2023-03-06T18:09:45.290Z,42.50
2023-03-06T18:12:37.679Z,33.80
2023-03-06T18:15:30.203Z,50.20
2023-03-06T18:18:22.705Z,63.40
2023-03-06T18:21:10.210Z,108.70
2023-03-06T18:24:02.629Z,66.80
2023-03-06T18:26:42.204Z,67.90
2023-03-06T18:29:28.336Z,49.50
2023-03-06T18:32:20.791Z,40.80
2023-03-06T18:35:09.481Z,45.20
2023-03-06T18:37:54.579Z,98.20
2023-03-06T18:40:29.977Z,365.10
2023-03-06T18:43:21.980Z,247.80
2023-03-06T18:46:14.935Z,27.50
2023-03-06T18:51:43.406Z,53.30
2023-03-06T18:54:30.361Z,43.50
2023-03-06T18:57:11.547Z,42.00
2023-03-06T18:59:55.601Z,53.20
2023-03-06T19:02:48.182Z,41.50
2023-03-06T19:05:33.643Z,48.30
2023-03-06T19:08:09.781Z,226.90
2023-03-06T19:10:53.604Z,201.80
2023-03-06T19:13:37.283Z,236.60
2023-03-06T19:16:33.851Z,151.70
2023-03-06T19:19:20.722Z,103.80
2023-03-06T19:22:16.629Z,100.80
2023-03-06T19:25:03.893Z,82.90
2023-03-06T19:27:50.562Z,70.40
2023-03-06T19:30:37.010Z,67.50
2023-03-06T19:33:22.683Z,51.80
2023-03-06T19:36:12.279Z,43.10
2023-03-06T19:39:07.560Z,56.20
2023-03-06T19:42:00.335Z,58.90
2023-03-06T19:44:46.817Z,94.80
2023-03-06T19:47:39.452Z,460.40
2023-03-06T19:50:32.074Z,342.30
2023-03-06T19:53:24.665Z,757.70
2023-03-06T19:56:20.486Z,580.90
2023-03-06T19:59:13.467Z,382.20
2023-03-06T20:01:54.658Z,264.80
2023-03-06T20:06:40.673Z,178.60
2023-03-06T20:07:58.750Z,125.60
2023-03-06T20:10:51.036Z,124.00
2023-03-06T20:13:47.328Z,96.30
2023-03-06T20:16:23.010Z,77.30
2023-03-06T20:19:09.321Z,79.90
2023-03-06T20:21:55.913Z,82.70
2023-03-06T20:24:42.467Z,75.10
2023-03-06T20:27:35.074Z,93.60
2023-03-06T20:33:09.750Z,275.20
2023-03-06T20:36:03.920Z,512.80
2023-03-06T20:38:50.785Z,325.40
2023-03-06T20:41:36.039Z,296.60
2023-03-06T20:44:19.884Z,622.40
2023-03-06T20:47:12.352Z,481.90
2023-03-06T20:49:49.237Z,508.50
2023-03-06T20:52:42.169Z,443.60
2023-03-06T20:55:27.754Z,718.50
2023-03-06T21:01:09.759Z,521.50
2023-03-06T21:04:04.494Z,580.50
2023-03-06T21:06:57.830Z,669.40
2023-03-06T21:09:51.733Z,1080.20
2023-03-06T21:12:33.146Z,923.30
2023-03-06T21:15:19.590Z,796.00
2023-03-06T21:18:13.199Z,683.70
2023-03-06T21:21:10.297Z,513.50
2023-03-06T21:24:03.686Z,513.10
2023-03-06T21:26:51.292Z,407.40
2023-03-06T21:29:45.507Z,355.10
2023-03-06T21:32:38.130Z,340.30
2023-03-06T21:35:24.400Z,279.90
2023-03-06T21:38:05.468Z,234.20
2023-03-06T21:40:57.875Z,230.50
2023-03-06T21:43:44.497Z,184.30
2023-03-06T21:46:30.938Z,181.80
2023-03-06T21:49:26.422Z,145.40
2023-03-06T21:52:12.596Z,95.40
2023-03-06T21:57:52.469Z,83.60
2023-03-06T22:00:43.785Z,100.80
2023-03-06T22:03:18.368Z,118.30
2023-03-06T22:06:12.661Z,89.60
2023-03-06T22:09:05.350Z,118.60
2023-03-06T22:11:58.350Z,87.30
2023-03-06T22:14:50.577Z,74.40
2023-03-06T22:17:41.699Z,66.30
2023-03-06T22:20:34.159Z,85.50
2023-03-06T22:23:26.704Z,59.50
2023-03-06T22:29:09.786Z,53.10
2023-03-06T22:32:02.167Z,53.30
2023-03-06T22:37:27.204Z,56.80
2023-03-06T22:40:14.212Z,53.20
2023-03-06T22:42:57.394Z,54.10
2023-03-06T22:45:49.966Z,58.20
2023-03-06T22:51:28.097Z,124.10
2023-03-06T22:54:20.804Z,117.10
2023-03-06T22:57:13.402Z,146.90
2023-03-06T22:59:58.692Z,146.80
2023-03-06T23:05:44.619Z,183.40
2023-03-06T23:08:29.685Z,154.10
2023-03-06T23:13:50.704Z,135.20
2023-03-06T23:16:41.805Z,117.20
2023-03-06T23:19:32.469Z,142.70
2023-03-06T23:22:23.208Z,140.00
2023-03-06T23:25:13.970Z,137.40
2023-03-06T23:28:05.573Z,120.70
2023-03-06T23:30:51.176Z,63.60
2023-03-06T23:33:26.153Z,50.20
2023-03-06T23:36:20.308Z,39.80
2023-03-06T23:39:14.336Z,34.60
2023-03-06T23:41:51.508Z,33.60
2023-03-06T23:47:24.765Z,34.20
2023-03-06T23:50:09.567Z,32.10
2023-03-06T23:52:56.309Z,30.90
2023-03-06T23:55:43.253Z,28.30
2023-03-06T23:58:29.318Z,32.30
